sensor_id;sensor_type;location;lat;lon;timestamp;P1;durP1;ratioP1;P2;durP2;ratioP2
39082;SDS011;24834;44.444;26.098;2022-12-29T00:01:34;67.67;;;54.67;;
39082;SDS011;24834;44.444;26.098;2022-12-29T00:07:38;69.67;;;54.00;;
39082;SDS011;24834;44.444;26.098;2022-12-29T00:13:41;70.67;;;57.67;;
39082;SDS011;24834;44.444;26.098;2022-12-29T00:20:02;64.00;;;52.67;;
39082;SDS011;24834;44.444;26.098;2022-12-29T00:26:24;69.67;;;54.00;;
39082;SDS011;24834;44.444;26.098;2022-12-29T00:32:45;70.67;;;57.00;;
39082;SDS011;24834;44.444;26.098;2022-12-29T00:39:09;69.00;;;57.00;;
39082;SDS011;24834;44.444;26.098;2022-12-29T00:45:39;66.00;;;54.33;;
39082;SDS011;24834;44.444;26.098;2022-12-29T00:51:43;60.67;;;45.33;;
39082;SDS011;24834;44.444;26.098;2022-12-29T00:57:45;73.67;;;58.00;;
39082;SDS011;24834;44.444;26.098;2022-12-29T01:03:48;71.67;;;58.33;;
39082;SDS011;24834;44.444;26.098;2022-12-29T01:09:53;72.33;;;58.67;;
39082;SDS011;24834;44.444;26.098;2022-12-29T01:16:16;74.00;;;60.50;;
39082;SDS011;24834;44.444;26.098;2022-12-29T01:22:19;70.00;;;58.67;;
39082;SDS011;24834;44.444;26.098;2022-12-29T01:28:22;71.33;;;58.00;;
39082;SDS011;24834;44.444;26.098;2022-12-29T01:34:27;75.33;;;58.67;;
39082;SDS011;24834;44.444;26.098;2022-12-29T01:40:29;70.67;;;54.00;;
39082;SDS011;24834;44.444;26.098;2022-12-29T01:46:39;78.00;;;63.33;;
39082;SDS011;24834;44.444;26.098;2022-12-29T01:52:44;79.00;;;61.67;;
39082;SDS011;24834;44.444;26.098;2022-12-29T01:58:55;78.00;;;63.00;;
39082;SDS011;24834;44.444;26.098;2022-12-29T02:05:06;80.67;;;65.33;;
39082;SDS011;24834;44.444;26.098;2022-12-29T02:11:13;83.33;;;67.00;;
39082;SDS011;24834;44.444;26.098;2022-12-29T02:36:39;87.00;;;69.33;;
39082;SDS011;24834;44.444;26.098;2022-12-29T02:42:51;92.33;;;71.00;;
39082;SDS011;24834;44.444;26.098;2022-12-29T02:49:10;90.33;;;72.00;;
39082;SDS011;24834;44.444;26.098;2022-12-29T02:55:17;91.00;;;71.33;;
39082;SDS011;24834;44.444;26.098;2022-12-29T03:07:48;84.33;;;67.00;;
39082;SDS011;24834;44.444;26.098;2022-12-29T03:14:02;87.00;;;67.00;;
39082;SDS011;24834;44.444;26.098;2022-12-29T03:20:41;86.67;;;68.00;;
39082;SDS011;24834;44.444;26.098;2022-12-29T03:26:52;78.00;;;63.00;;
39082;SDS011;24834;44.444;26.098;2022-12-29T03:32:58;84.33;;;70.00;;
39082;SDS011;24834;44.444;26.098;2022-12-29T03:39:10;79.00;;;66.00;;
39082;SDS011;24834;44.444;26.098;2022-12-29T03:45:15;82.00;;;63.00;;
39082;SDS011;24834;44.444;26.098;2022-12-29T03:51:21;82.00;;;64.67;;
39082;SDS011;24834;44.444;26.098;2022-12-29T03:57:26;79.67;;;64.67;;
39082;SDS011;24834;44.444;26.098;2022-12-29T04:03:33;79.67;;;64.00;;
39082;SDS011;24834;44.444;26.098;2022-12-29T04:09:35;82.67;;;63.33;;
39082;SDS011;24834;44.444;26.098;2022-12-29T04:15:39;81.00;;;66.33;;
39082;SDS011;24834;44.444;26.098;2022-12-29T04:21:41;77.33;;;63.00;;
39082;SDS011;24834;44.444;26.098;2022-12-29T04:27:44;84.00;;;65.00;;
39082;SDS011;24834;44.444;26.098;2022-12-29T04:34:08;69.00;;;57.67;;
39082;SDS011;24834;44.444;26.098;2022-12-29T04:40:19;82.67;;;63.33;;
39082;SDS011;24834;44.444;26.098;2022-12-29T04:46:21;72.67;;;59.33;;
39082;SDS011;24834;44.444;26.098;2022-12-29T04:52:46;78.33;;;60.00;;
39082;SDS011;24834;44.444;26.098;2022-12-29T04:58:48;75.33;;;62.00;;
39082;SDS011;24834;44.444;26.098;2022-12-29T05:04:50;78.00;;;63.00;;
39082;SDS011;24834;44.444;26.098;2022-12-29T05:10:55;82.67;;;66.67;;
39082;SDS011;24834;44.444;26.098;2022-12-29T06:08:18;79.00;;;64.67;;
39082;SDS011;24834;44.444;26.098;2022-12-29T06:14:22;90.00;;;66.00;;
39082;SDS011;24834;44.444;26.098;2022-12-29T06:20:24;80.67;;;66.67;;
39082;SDS011;24834;44.444;26.098;2022-12-29T06:26:29;81.00;;;65.67;;
39082;SDS011;24834;44.444;26.098;2022-12-29T06:32:33;73.67;;;59.33;;
39082;SDS011;24834;44.444;26.098;2022-12-29T06:38:38;75.67;;;61.33;;
39082;SDS011;24834;44.444;26.098;2022-12-29T06:44:41;85.67;;;66.67;;
39082;SDS011;24834;44.444;26.098;2022-12-29T06:50:45;83.33;;;66.67;;
39082;SDS011;24834;44.444;26.098;2022-12-29T06:56:48;76.00;;;63.67;;
39082;SDS011;24834;44.444;26.098;2022-12-29T07:02:50;77.67;;;57.33;;
39082;SDS011;24834;44.444;26.098;2022-12-29T07:08:53;68.67;;;57.33;;
39082;SDS011;24834;44.444;26.098;2022-12-29T07:14:59;79.67;;;63.33;;
39082;SDS011;24834;44.444;26.098;2022-12-29T07:21:03;75.33;;;63.00;;
39082;SDS011;24834;44.444;26.098;2022-12-29T07:27:08;71.67;;;57.67;;
39082;SDS011;24834;44.444;26.098;2022-12-29T07:33:11;76.33;;;62.67;;
39082;SDS011;24834;44.444;26.098;2022-12-29T07:39:13;71.67;;;54.00;;
39082;SDS011;24834;44.444;26.098;2022-12-29T07:45:15;70.67;;;57.33;;
39082;SDS011;24834;44.444;26.098;2022-12-29T07:51:22;68.67;;;55.33;;
39082;SDS011;24834;44.444;26.098;2022-12-29T07:57:24;66.33;;;54.00;;
39082;SDS011;24834;44.444;26.098;2022-12-29T08:03:32;69.33;;;55.67;;
39082;SDS011;24834;44.444;26.098;2022-12-29T08:15:49;69.25;;;56.00;;
39082;SDS011;24834;44.444;26.098;2022-12-29T08:21:55;56.75;;;49.50;;
39082;SDS011;24834;44.444;26.098;2022-12-29T08:28:01;66.00;;;53.00;;
39082;SDS011;24834;44.444;26.098;2022-12-29T08:34:05;57.50;;;47.50;;
39082;SDS011;24834;44.444;26.098;2022-12-29T08:40:08;56.00;;;46.75;;
39082;SDS011;24834;44.444;26.098;2022-12-29T08:46:15;43.75;;;39.50;;
39082;SDS011;24834;44.444;26.098;2022-12-29T08:52:19;34.50;;;30.00;;
39082;SDS011;24834;44.444;26.098;2022-12-29T08:58:21;37.75;;;32.00;;
39082;SDS011;24834;44.444;26.098;2022-12-29T09:04:24;31.50;;;29.75;;
39082;SDS011;24834;44.444;26.098;2022-12-29T09:10:27;33.00;;;24.25;;
39082;SDS011;24834;44.444;26.098;2022-12-29T09:16:29;29.25;;;27.00;;
39082;SDS011;24834;44.444;26.098;2022-12-29T09:22:35;31.25;;;27.25;;
39082;SDS011;24834;44.444;26.098;2022-12-29T09:28:39;36.00;;;32.25;;
39082;SDS011;24834;44.444;26.098;2022-12-29T09:34:43;26.75;;;21.50;;
39082;SDS011;24834;44.444;26.098;2022-12-29T09:40:54;23.50;;;20.50;;
39082;SDS011;24834;44.444;26.098;2022-12-29T09:47:08;23.25;;;20.75;;
39082;SDS011;24834;44.444;26.098;2022-12-29T09:53:36;21.00;;;21.00;;
39082;SDS011;24834;44.444;26.098;2022-12-29T09:59:42;34.00;;;32.50;;
39082;SDS011;24834;44.444;26.098;2022-12-29T10:18:46;24.50;;;22.00;;
39082;SDS011;24834;44.444;26.098;2022-12-29T10:25:11;21.75;;;21.75;;
39082;SDS011;24834;44.444;26.098;2022-12-29T10:31:21;25.25;;;24.25;;
39082;SDS011;24834;44.444;26.098;2022-12-29T10:43:47;23.50;;;23.50;;
39082;SDS011;24834;44.444;26.098;2022-12-29T10:49:55;29.75;;;26.25;;
39082;SDS011;24834;44.444;26.098;2022-12-29T10:56:00;31.50;;;26.00;;
39082;SDS011;24834;44.444;26.098;2022-12-29T11:08:17;27.75;;;23.00;;
39082;SDS011;24834;44.444;26.098;2022-12-29T11:14:30;24.67;;;21.00;;
39082;SDS011;24834;44.444;26.098;2022-12-29T11:21:34;29.50;;;25.50;;
39082;SDS011;24834;44.444;26.098;2022-12-29T11:28:27;27.75;;;24.75;;
39082;SDS011;24834;44.444;26.098;2022-12-29T11:35:01;54.75;;;44.00;;
39082;SDS011;24834;44.444;26.098;2022-12-29T11:41:11;33.00;;;29.50;;
39082;SDS011;24834;44.444;26.098;2022-12-29T11:47:25;30.25;;;26.75;;
39082;SDS011;24834;44.444;26.098;2022-12-29T11:59:53;26.50;;;21.75;;
39082;SDS011;24834;44.444;26.098;2022-12-29T12:06:01;26.50;;;22.00;;
39082;SDS011;24834;44.444;26.098;2022-12-29T12:12:04;28.50;;;25.00;;
39082;SDS011;24834;44.444;26.098;2022-12-29T12:18:14;34.75;;;32.00;;
39082;SDS011;24834;44.444;26.098;2022-12-29T12:24:48;31.75;;;28.25;;
39082;SDS011;24834;44.444;26.098;2022-12-29T12:31:14;31.75;;;26.75;;
39082;SDS011;24834;44.444;26.098;2022-12-29T13:15:52;33.50;;;27.75;;
39082;SDS011;24834;44.444;26.098;2022-12-29T13:22:38;29.25;;;23.50;;
39082;SDS011;24834;44.444;26.098;2022-12-29T13:36:05;24.00;;;23.00;;
39082;SDS011;24834;44.444;26.098;2022-12-29T13:42:18;28.75;;;24.00;;
39082;SDS011;24834;44.444;26.098;2022-12-29T13:48:23;21.50;;;14.50;;
39082;SDS011;24834;44.444;26.098;2022-12-29T13:54:44;20.50;;;19.50;;
39082;SDS011;24834;44.444;26.098;2022-12-29T14:00:51;23.75;;;22.00;;
39082;SDS011;24834;44.444;26.098;2022-12-29T14:07:02;26.00;;;22.75;;
39082;SDS011;24834;44.444;26.098;2022-12-29T14:19:24;32.00;;;31.00;;
39082;SDS011;24834;44.444;26.098;2022-12-29T14:38:34;22.50;;;22.50;;
39082;SDS011;24834;44.444;26.098;2022-12-29T14:51:17;29.25;;;28.25;;
39082;SDS011;24834;44.444;26.098;2022-12-29T14:57:35;29.25;;;29.25;;
39082;SDS011;24834;44.444;26.098;2022-12-29T15:03:46;36.75;;;33.00;;
39082;SDS011;24834;44.444;26.098;2022-12-29T15:09:58;41.75;;;35.00;;
39082;SDS011;24834;44.444;26.098;2022-12-29T15:22:41;58.50;;;47.50;;
39082;SDS011;24834;44.444;26.098;2022-12-29T15:28:45;60.00;;;46.00;;
39082;SDS011;24834;44.444;26.098;2022-12-29T15:34:51;61.00;;;49.50;;
39082;SDS011;24834;44.444;26.098;2022-12-29T15:41:00;64.25;;;53.00;;
39082;SDS011;24834;44.444;26.098;2022-12-29T15:47:15;63.50;;;51.00;;
39082;SDS011;24834;44.444;26.098;2022-12-29T15:53:29;64.00;;;53.00;;
39082;SDS011;24834;44.444;26.098;2022-12-29T15:59:33;70.25;;;53.75;;
39082;SDS011;24834;44.444;26.098;2022-12-29T16:05:38;75.50;;;59.50;;
39082;SDS011;24834;44.444;26.098;2022-12-29T16:11:53;58.00;;;49.75;;
39082;SDS011;24834;44.444;26.098;2022-12-29T16:17:59;66.75;;;55.75;;
39082;SDS011;24834;44.444;26.098;2022-12-29T16:24:07;64.50;;;54.25;;
39082;SDS011;24834;44.444;26.098;2022-12-29T16:30:19;69.25;;;54.00;;
39082;SDS011;24834;44.444;26.098;2022-12-29T16:36:32;60.50;;;50.75;;
39082;SDS011;24834;44.444;26.098;2022-12-29T16:48:47;70.75;;;56.00;;
39082;SDS011;24834;44.444;26.098;2022-12-29T16:54:54;64.25;;;50.00;;
39082;SDS011;24834;44.444;26.098;2022-12-29T17:01:03;67.00;;;57.00;;
39082;SDS011;24834;44.444;26.098;2022-12-29T17:07:16;67.75;;;52.50;;
39082;SDS011;24834;44.444;26.098;2022-12-29T17:13:29;72.00;;;58.25;;
39082;SDS011;24834;44.444;26.098;2022-12-29T17:19:35;70.00;;;58.50;;
39082;SDS011;24834;44.444;26.098;2022-12-29T17:25:41;79.67;;;63.33;;
39082;SDS011;24834;44.444;26.098;2022-12-29T17:31:43;73.50;;;60.25;;
39082;SDS011;24834;44.444;26.098;2022-12-29T17:37:49;75.25;;;61.50;;
39082;SDS011;24834;44.444;26.098;2022-12-29T17:43:54;78.75;;;62.75;;
39082;SDS011;24834;44.444;26.098;2022-12-29T17:50:00;74.75;;;60.25;;
39082;SDS011;24834;44.444;26.098;2022-12-29T17:56:03;80.50;;;63.25;;
39082;SDS011;24834;44.444;26.098;2022-12-29T18:02:21;76.50;;;61.75;;
39082;SDS011;24834;44.444;26.098;2022-12-29T18:08:32;74.75;;;61.00;;
39082;SDS011;24834;44.444;26.098;2022-12-29T18:14:36;80.75;;;63.25;;
39082;SDS011;24834;44.444;26.098;2022-12-29T18:20:39;86.50;;;66.25;;
39082;SDS011;24834;44.444;26.098;2022-12-29T18:26:44;75.25;;;58.00;;
39082;SDS011;24834;44.444;26.098;2022-12-29T18:32:47;75.00;;;60.00;;
39082;SDS011;24834;44.444;26.098;2022-12-29T18:38:49;82.25;;;61.25;;
39082;SDS011;24834;44.444;26.098;2022-12-29T18:44:55;75.00;;;60.25;;
39082;SDS011;24834;44.444;26.098;2022-12-29T18:50:57;77.33;;;64.00;;
39082;SDS011;24834;44.444;26.098;2022-12-29T18:57:00;69.00;;;57.00;;
39082;SDS011;24834;44.444;26.098;2022-12-29T19:03:06;72.50;;;54.50;;
39082;SDS011;24834;44.444;26.098;2022-12-29T19:09:08;74.50;;;61.50;;
39082;SDS011;24834;44.444;26.098;2022-12-29T19:15:17;78.33;;;62.33;;
39082;SDS011;24834;44.444;26.098;2022-12-29T19:21:25;72.25;;;58.25;;
39082;SDS011;24834;44.444;26.098;2022-12-29T19:27:27;75.00;;;60.00;;
39082;SDS011;24834;44.444;26.098;2022-12-29T19:33:30;79.00;;;62.00;;
39082;SDS011;24834;44.444;26.098;2022-12-29T19:39:32;76.00;;;60.00;;
39082;SDS011;24834;44.444;26.098;2022-12-29T19:45:37;80.50;;;62.25;;
39082;SDS011;24834;44.444;26.098;2022-12-29T19:51:41;76.00;;;60.25;;
39082;SDS011;24834;44.444;26.098;2022-12-29T19:57:43;71.75;;;57.00;;
39082;SDS011;24834;44.444;26.098;2022-12-29T20:03:47;64.75;;;53.25;;
39082;SDS011;24834;44.444;26.098;2022-12-29T20:09:50;68.25;;;55.00;;
39082;SDS011;24834;44.444;26.098;2022-12-29T20:15:56;66.50;;;53.50;;
39082;SDS011;24834;44.444;26.098;2022-12-29T20:21:59;70.50;;;56.75;;
39082;SDS011;24834;44.444;26.098;2022-12-29T20:28:02;66.75;;;52.25;;
39082;SDS011;24834;44.444;26.098;2022-12-29T20:34:05;73.75;;;59.50;;
39082;SDS011;24834;44.444;26.098;2022-12-29T20:40:10;79.00;;;60.00;;
39082;SDS011;24834;44.444;26.098;2022-12-29T20:46:13;77.25;;;61.75;;
39082;SDS011;24834;44.444;26.098;2022-12-29T20:52:22;77.00;;;63.00;;
39082;SDS011;24834;44.444;26.098;2022-12-29T20:58:27;79.25;;;64.50;;
39082;SDS011;24834;44.444;26.098;2022-12-29T21:04:33;77.33;;;58.67;;
39082;SDS011;24834;44.444;26.098;2022-12-29T21:10:57;73.67;;;63.00;;
39082;SDS011;24834;44.444;26.098;2022-12-29T21:17:02;81.50;;;64.75;;
39082;SDS011;24834;44.444;26.098;2022-12-29T21:23:04;83.00;;;62.67;;
39082;SDS011;24834;44.444;26.098;2022-12-29T21:29:07;80.00;;;64.00;;
39082;SDS011;24834;44.444;26.098;2022-12-29T21:35:09;76.75;;;62.75;;
39082;SDS011;24834;44.444;26.098;2022-12-29T21:41:13;79.33;;;63.33;;
39082;SDS011;24834;44.444;26.098;2022-12-29T21:47:17;73.50;;;58.50;;
39082;SDS011;24834;44.444;26.098;2022-12-29T21:53:19;74.75;;;61.00;;
39082;SDS011;24834;44.444;26.098;2022-12-29T21:59:22;73.75;;;60.00;;
39082;SDS011;24834;44.444;26.098;2022-12-29T22:05:43;75.00;;;60.00;;
39082;SDS011;24834;44.444;26.098;2022-12-29T22:12:04;83.00;;;61.00;;
39082;SDS011;24834;44.444;26.098;2022-12-29T22:18:28;80.25;;;58.25;;
39082;SDS011;24834;44.444;26.098;2022-12-29T22:24:30;78.25;;;59.50;;
39082;SDS011;24834;44.444;26.098;2022-12-29T22:30:34;79.50;;;61.50;;
39082;SDS011;24834;44.444;26.098;2022-12-29T22:36:36;78.50;;;59.75;;
39082;SDS011;24834;44.444;26.098;2022-12-29T22:42:44;77.33;;;61.33;;
39082;SDS011;24834;44.444;26.098;2022-12-29T22:48:47;66.67;;;57.67;;
39082;SDS011;24834;44.444;26.098;2022-12-29T22:54:50;78.00;;;62.33;;
39082;SDS011;24834;44.444;26.098;2022-12-29T23:00:52;82.67;;;64.67;;
39082;SDS011;24834;44.444;26.098;2022-12-29T23:06:54;80.67;;;64.67;;
39082;SDS011;24834;44.444;26.098;2022-12-29T23:12:57;76.67;;;61.00;;
39082;SDS011;24834;44.444;26.098;2022-12-29T23:18:59;89.33;;;67.67;;
39082;SDS011;24834;44.444;26.098;2022-12-29T23:25:02;72.67;;;59.67;;
39082;SDS011;24834;44.444;26.098;2022-12-29T23:31:04;74.67;;;60.00;;
39082;SDS011;24834;44.444;26.098;2022-12-29T23:37:07;82.25;;;63.25;;
39082;SDS011;24834;44.444;26.098;2022-12-29T23:43:11;76.25;;;61.25;;
39082;SDS011;24834;44.444;26.098;2022-12-29T23:49:13;76.33;;;62.67;;
39082;SDS011;24834;44.444;26.098;2022-12-29T23:55:17;83.67;;;63.00;;
